sensor_id;sensor_type;location;lat;lon;timestamp;temperature;humidity
46055;DHT22;31788;6.954;-71.872;2023-04-03T00:00:33;28.50;93.10
46055;DHT22;31788;6.954;-71.872;2023-04-03T00:02:59;28.50;93.00
46055;DHT22;31788;6.954;-71.872;2023-04-03T00:05:26;28.50;93.10
46055;DHT22;31788;6.954;-71.872;2023-04-03T00:07:52;28.50;93.00
46055;DHT22;31788;6.954;-71.872;2023-04-03T00:10:19;28.50;93.00
46055;DHT22;31788;6.954;-71.872;2023-04-03T00:12:46;28.50;93.10
46055;DHT22;31788;6.954;-71.872;2023-04-03T00:15:13;28.40;93.00
46055;DHT22;31788;6.954;-71.872;2023-04-03T00:17:39;28.40;93.00
46055;DHT22;31788;6.954;-71.872;2023-04-03T00:20:06;28.40;93.00
46055;DHT22;31788;6.954;-71.872;2023-04-03T00:22:33;28.40;93.30
46055;DHT22;31788;6.954;-71.872;2023-04-03T00:24:59;28.40;93.00
46055;DHT22;31788;6.954;-71.872;2023-04-03T00:27:26;28.40;92.90
46055;DHT22;31788;6.954;-71.872;2023-04-03T00:29:53;28.40;92.90
46055;DHT22;31788;6.954;-71.872;2023-04-03T00:32:19;28.40;92.80
46055;DHT22;31788;6.954;-71.872;2023-04-03T00:34:46;28.40;93.00
46055;DHT22;31788;6.954;-71.872;2023-04-03T00:37:12;28.30;92.80
46055;DHT22;31788;6.954;-71.872;2023-04-03T00:39:39;28.30;92.70
46055;DHT22;31788;6.954;-71.872;2023-04-03T00:42:06;28.30;92.70
46055;DHT22;31788;6.954;-71.872;2023-04-03T00:47:04;28.20;92.50
46055;DHT22;31788;6.954;-71.872;2023-04-03T00:49:32;28.20;92.70
46055;DHT22;31788;6.954;-71.872;2023-04-03T00:51:59;28.10;92.90
46055;DHT22;31788;6.954;-71.872;2023-04-03T00:54:26;28.10;93.10
46055;DHT22;31788;6.954;-71.872;2023-04-03T00:56:55;28.10;93.30
46055;DHT22;31788;6.954;-71.872;2023-04-03T00:59:30;28.10;93.10
46055;DHT22;31788;6.954;-71.872;2023-04-03T01:01:58;28.00;93.10
46055;DHT22;31788;6.954;-71.872;2023-04-03T01:07:03;28.00;93.00
46055;DHT22;31788;6.954;-71.872;2023-04-03T01:09:32;28.00;93.00
46055;DHT22;31788;6.954;-71.872;2023-04-03T01:12:23;27.90;93.00
46055;DHT22;31788;6.954;-71.872;2023-04-03T01:14:53;27.90;92.90
46055;DHT22;31788;6.954;-71.872;2023-04-03T01:25:27;27.90;92.70
46055;DHT22;31788;6.954;-71.872;2023-04-03T01:27:53;27.90;92.60
46055;DHT22;31788;6.954;-71.872;2023-04-03T01:30:22;27.90;92.40
46055;DHT22;31788;6.954;-71.872;2023-04-03T01:32:51;27.90;92.40
46055;DHT22;31788;6.954;-71.872;2023-04-03T01:35:17;27.90;92.60
46055;DHT22;31788;6.954;-71.872;2023-04-03T01:37:44;27.90;92.50
46055;DHT22;31788;6.954;-71.872;2023-04-03T01:40:11;27.90;92.50
46055;DHT22;31788;6.954;-71.872;2023-04-03T01:42:37;27.80;92.60
46055;DHT22;31788;6.954;-71.872;2023-04-03T01:45:04;27.80;92.80
46055;DHT22;31788;6.954;-71.872;2023-04-03T01:47:31;27.80;92.80
46055;DHT22;31788;6.954;-71.872;2023-04-03T01:49:57;27.70;92.80
46055;DHT22;31788;6.954;-71.872;2023-04-03T01:52:24;27.70;93.00
46055;DHT22;31788;6.954;-71.872;2023-04-03T01:54:51;27.70;92.80
46055;DHT22;31788;6.954;-71.872;2023-04-03T01:57:17;27.70;92.70
46055;DHT22;31788;6.954;-71.872;2023-04-03T01:59:44;27.70;92.80
46055;DHT22;31788;6.954;-71.872;2023-04-03T02:02:11;27.60;92.70
46055;DHT22;31788;6.954;-71.872;2023-04-03T02:04:38;27.60;92.70
46055;DHT22;31788;6.954;-71.872;2023-04-03T02:07:08;27.60;92.90
46055;DHT22;31788;6.954;-71.872;2023-04-03T02:09:37;27.50;93.10
46055;DHT22;31788;6.954;-71.872;2023-04-03T02:12:03;27.50;93.10
46055;DHT22;31788;6.954;-71.872;2023-04-03T02:14:30;27.50;93.30
46055;DHT22;31788;6.954;-71.872;2023-04-03T02:16:59;27.40;93.30
46055;DHT22;31788;6.954;-71.872;2023-04-03T02:19:26;27.40;92.80
46055;DHT22;31788;6.954;-71.872;2023-04-03T02:21:53;27.40;92.70
46055;DHT22;31788;6.954;-71.872;2023-04-03T02:24:20;27.40;92.90
46055;DHT22;31788;6.954;-71.872;2023-04-03T02:26:46;27.40;93.00
46055;DHT22;31788;6.954;-71.872;2023-04-03T02:29:13;27.30;93.00
46055;DHT22;31788;6.954;-71.872;2023-04-03T02:31:40;27.30;92.90
46055;DHT22;31788;6.954;-71.872;2023-04-03T02:34:07;27.30;92.70
46055;DHT22;31788;6.954;-71.872;2023-04-03T02:36:33;27.30;92.60
46055;DHT22;31788;6.954;-71.872;2023-04-03T02:39:00;27.30;92.50
46055;DHT22;31788;6.954;-71.872;2023-04-03T02:41:29;27.20;92.80
46055;DHT22;31788;6.954;-71.872;2023-04-03T02:44:05;27.20;92.60
46055;DHT22;31788;6.954;-71.872;2023-04-03T02:46:32;27.10;92.70
46055;DHT22;31788;6.954;-71.872;2023-04-03T02:48:59;27.20;92.00
46055;DHT22;31788;6.954;-71.872;2023-04-03T02:51:26;27.20;92.40
46055;DHT22;31788;6.954;-71.872;2023-04-03T02:53:52;27.20;92.00
46055;DHT22;31788;6.954;-71.872;2023-04-03T02:56:19;27.20;91.80
46055;DHT22;31788;6.954;-71.872;2023-04-03T02:58:46;27.20;91.90
46055;DHT22;31788;6.954;-71.872;2023-04-03T03:01:13;27.20;91.70
46055;DHT22;31788;6.954;-71.872;2023-04-03T03:03:40;27.20;91.70
46055;DHT22;31788;6.954;-71.872;2023-04-03T03:06:12;27.20;91.60
46055;DHT22;31788;6.954;-71.872;2023-04-03T03:08:39;27.20;92.00
46055;DHT22;31788;6.954;-71.872;2023-04-03T03:11:06;27.10;91.80
46055;DHT22;31788;6.954;-71.872;2023-04-03T03:13:32;27.10;91.40
46055;DHT22;31788;6.954;-71.872;2023-04-03T03:16:02;27.10;91.30
46055;DHT22;31788;6.954;-71.872;2023-04-03T03:18:29;27.10;91.30
46055;DHT22;31788;6.954;-71.872;2023-04-03T03:20:58;27.10;90.90
46055;DHT22;31788;6.954;-71.872;2023-04-03T03:23:26;27.10;90.80
46055;DHT22;31788;6.954;-71.872;2023-04-03T03:26:04;27.10;90.70
46055;DHT22;31788;6.954;-71.872;2023-04-03T03:28:31;27.10;90.90
46055;DHT22;31788;6.954;-71.872;2023-04-03T03:30:58;27.10;91.20
46055;DHT22;31788;6.954;-71.872;2023-04-03T03:33:25;27.00;91.10
46055;DHT22;31788;6.954;-71.872;2023-04-03T03:35:53;26.90;90.90
46055;DHT22;31788;6.954;-71.872;2023-04-03T03:38:20;26.90;91.10
46055;DHT22;31788;6.954;-71.872;2023-04-03T03:40:48;27.00;91.00
46055;DHT22;31788;6.954;-71.872;2023-04-03T03:43:16;26.90;90.90
46055;DHT22;31788;6.954;-71.872;2023-04-03T03:45:43;27.00;90.80
46055;DHT22;31788;6.954;-71.872;2023-04-03T03:48:10;26.90;90.70
46055;DHT22;31788;6.954;-71.872;2023-04-03T03:50:36;27.00;90.40
46055;DHT22;31788;6.954;-71.872;2023-04-03T03:53:03;27.00;90.10
46055;DHT22;31788;6.954;-71.872;2023-04-03T03:55:30;27.00;90.40
46055;DHT22;31788;6.954;-71.872;2023-04-03T03:57:56;27.00;90.20
46055;DHT22;31788;6.954;-71.872;2023-04-03T04:00:23;27.00;90.00
46055;DHT22;31788;6.954;-71.872;2023-04-03T04:02:49;27.00;89.50
46055;DHT22;31788;6.954;-71.872;2023-04-03T04:05:17;27.00;90.00
46055;DHT22;31788;6.954;-71.872;2023-04-03T04:07:44;27.00;89.00
46055;DHT22;31788;6.954;-71.872;2023-04-03T04:10:10;27.00;89.10
46055;DHT22;31788;6.954;-71.872;2023-04-03T04:12:37;27.00;88.70
46055;DHT22;31788;6.954;-71.872;2023-04-03T04:15:04;27.00;88.60
46055;DHT22;31788;6.954;-71.872;2023-04-03T04:17:31;27.00;88.60
46055;DHT22;31788;6.954;-71.872;2023-04-03T04:19:58;27.00;88.10
46055;DHT22;31788;6.954;-71.872;2023-04-03T04:22:25;27.00;88.30
46055;DHT22;31788;6.954;-71.872;2023-04-03T04:24:51;27.00;88.10
46055;DHT22;31788;6.954;-71.872;2023-04-03T04:27:18;27.00;87.60
46055;DHT22;31788;6.954;-71.872;2023-04-03T04:29:45;27.00;87.30
46055;DHT22;31788;6.954;-71.872;2023-04-03T04:32:11;27.00;87.40
46055;DHT22;31788;6.954;-71.872;2023-04-03T04:34:38;27.00;87.90
46055;DHT22;31788;6.954;-71.872;2023-04-03T04:37:04;27.00;87.50
46055;DHT22;31788;6.954;-71.872;2023-04-03T04:39:31;27.00;87.60
46055;DHT22;31788;6.954;-71.872;2023-04-03T04:41:57;27.00;88.20
46055;DHT22;31788;6.954;-71.872;2023-04-03T04:44:24;27.00;88.10
46055;DHT22;31788;6.954;-71.872;2023-04-03T04:46:51;27.00;88.10
46055;DHT22;31788;6.954;-71.872;2023-04-03T04:49:17;27.00;87.70
46055;DHT22;31788;6.954;-71.872;2023-04-03T04:51:44;27.00;87.60
46055;DHT22;31788;6.954;-71.872;2023-04-03T04:54:11;27.00;87.40
46055;DHT22;31788;6.954;-71.872;2023-04-03T04:56:37;27.00;87.00
46055;DHT22;31788;6.954;-71.872;2023-04-03T04:59:04;27.00;87.20
46055;DHT22;31788;6.954;-71.872;2023-04-03T05:01:30;27.10;87.30
46055;DHT22;31788;6.954;-71.872;2023-04-03T05:03:57;27.00;86.80
46055;DHT22;31788;6.954;-71.872;2023-04-03T05:06:24;27.00;87.00
46055;DHT22;31788;6.954;-71.872;2023-04-03T05:08:50;27.00;86.70
46055;DHT22;31788;6.954;-71.872;2023-04-03T05:11:17;27.00;86.50
46055;DHT22;31788;6.954;-71.872;2023-04-03T05:13:43;27.00;86.60
46055;DHT22;31788;6.954;-71.872;2023-04-03T05:16:10;27.10;85.90
46055;DHT22;31788;6.954;-71.872;2023-04-03T05:18:37;27.10;86.10
46055;DHT22;31788;6.954;-71.872;2023-04-03T05:21:04;27.10;86.10
46055;DHT22;31788;6.954;-71.872;2023-04-03T05:23:30;27.10;85.80
46055;DHT22;31788;6.954;-71.872;2023-04-03T05:25:57;27.10;86.30
46055;DHT22;31788;6.954;-71.872;2023-04-03T05:28:24;27.10;86.30
46055;DHT22;31788;6.954;-71.872;2023-04-03T05:30:54;27.10;85.90
46055;DHT22;31788;6.954;-71.872;2023-04-03T05:33:21;27.10;85.80
46055;DHT22;31788;6.954;-71.872;2023-04-03T05:35:48;27.10;86.00
46055;DHT22;31788;6.954;-71.872;2023-04-03T05:38:14;27.10;86.00
46055;DHT22;31788;6.954;-71.872;2023-04-03T05:40:41;27.10;85.80
46055;DHT22;31788;6.954;-71.872;2023-04-03T05:43:08;27.00;86.90
46055;DHT22;31788;6.954;-71.872;2023-04-03T05:45:34;27.10;86.70
46055;DHT22;31788;6.954;-71.872;2023-04-03T05:48:01;27.10;87.00
46055;DHT22;31788;6.954;-71.872;2023-04-03T05:50:27;27.10;87.10
46055;DHT22;31788;6.954;-71.872;2023-04-03T05:52:57;27.00;87.40
46055;DHT22;31788;6.954;-71.872;2023-04-03T05:55:24;27.00;87.30
46055;DHT22;31788;6.954;-71.872;2023-04-03T05:57:51;27.00;87.20
46055;DHT22;31788;6.954;-71.872;2023-04-03T06:00:18;27.00;87.50
46055;DHT22;31788;6.954;-71.872;2023-04-03T06:02:45;26.90;86.90
46055;DHT22;31788;6.954;-71.872;2023-04-03T06:05:11;26.90;87.70
46055;DHT22;31788;6.954;-71.872;2023-04-03T06:07:39;26.90;88.10
46055;DHT22;31788;6.954;-71.872;2023-04-03T06:10:06;26.90;88.60
46055;DHT22;31788;6.954;-71.872;2023-04-03T06:12:34;26.80;88.50
46055;DHT22;31788;6.954;-71.872;2023-04-03T06:15:01;26.80;88.70
46055;DHT22;31788;6.954;-71.872;2023-04-03T06:17:29;26.70;89.10
46055;DHT22;31788;6.954;-71.872;2023-04-03T06:19:56;26.70;90.00
46055;DHT22;31788;6.954;-71.872;2023-04-03T06:22:24;26.60;89.80
46055;DHT22;31788;6.954;-71.872;2023-04-03T06:24:51;26.60;89.80
46055;DHT22;31788;6.954;-71.872;2023-04-03T06:27:18;26.60;89.80
46055;DHT22;31788;6.954;-71.872;2023-04-03T06:29:44;26.50;89.40
46055;DHT22;31788;6.954;-71.872;2023-04-03T06:32:11;26.50;89.80
46055;DHT22;31788;6.954;-71.872;2023-04-03T06:34:38;26.50;89.80
46055;DHT22;31788;6.954;-71.872;2023-04-03T06:37:04;26.50;90.00
46055;DHT22;31788;6.954;-71.872;2023-04-03T06:39:31;26.50;90.00
46055;DHT22;31788;6.954;-71.872;2023-04-03T06:41:58;26.50;90.00
46055;DHT22;31788;6.954;-71.872;2023-04-03T06:44:25;26.50;90.00
46055;DHT22;31788;6.954;-71.872;2023-04-03T06:46:52;26.50;89.90
46055;DHT22;31788;6.954;-71.872;2023-04-03T06:49:20;26.50;90.00
46055;DHT22;31788;6.954;-71.872;2023-04-03T06:51:47;26.50;89.50
46055;DHT22;31788;6.954;-71.872;2023-04-03T06:54:14;26.50;89.10
46055;DHT22;31788;6.954;-71.872;2023-04-03T06:56:40;26.50;89.60
46055;DHT22;31788;6.954;-71.872;2023-04-03T06:59:07;26.50;89.80
46055;DHT22;31788;6.954;-71.872;2023-04-03T07:01:34;26.50;90.50
46055;DHT22;31788;6.954;-71.872;2023-04-03T07:04:01;26.50;90.10
46055;DHT22;31788;6.954;-71.872;2023-04-03T07:06:27;26.50;90.40
46055;DHT22;31788;6.954;-71.872;2023-04-03T07:08:54;26.50;90.30
46055;DHT22;31788;6.954;-71.872;2023-04-03T07:11:21;26.40;90.20
46055;DHT22;31788;6.954;-71.872;2023-04-03T07:13:49;26.50;90.40
46055;DHT22;31788;6.954;-71.872;2023-04-03T07:16:15;26.50;90.10
46055;DHT22;31788;6.954;-71.872;2023-04-03T07:18:42;26.50;90.20
46055;DHT22;31788;6.954;-71.872;2023-04-03T07:21:08;26.50;90.00
46055;DHT22;31788;6.954;-71.872;2023-04-03T07:23:35;26.40;90.10
46055;DHT22;31788;6.954;-71.872;2023-04-03T07:26:02;26.40;90.10
46055;DHT22;31788;6.954;-71.872;2023-04-03T07:28:29;26.40;90.30
46055;DHT22;31788;6.954;-71.872;2023-04-03T07:31:07;26.40;90.70
46055;DHT22;31788;6.954;-71.872;2023-04-03T07:33:37;26.40;90.40
46055;DHT22;31788;6.954;-71.872;2023-04-03T07:36:05;26.40;90.70
46055;DHT22;31788;6.954;-71.872;2023-04-03T07:38:33;26.40;90.50
46055;DHT22;31788;6.954;-71.872;2023-04-03T07:41:01;26.30;90.60
46055;DHT22;31788;6.954;-71.872;2023-04-03T07:43:28;26.30;90.70
46055;DHT22;31788;6.954;-71.872;2023-04-03T07:45:55;26.30;90.40
46055;DHT22;31788;6.954;-71.872;2023-04-03T07:48:23;26.30;90.20
46055;DHT22;31788;6.954;-71.872;2023-04-03T07:50:51;26.40;90.00
46055;DHT22;31788;6.954;-71.872;2023-04-03T07:53:18;26.40;89.60
46055;DHT22;31788;6.954;-71.872;2023-04-03T07:55:48;26.40;89.40
46055;DHT22;31788;6.954;-71.872;2023-04-03T07:58:18;26.40;88.60
46055;DHT22;31788;6.954;-71.872;2023-04-03T08:00:45;26.40;88.90
46055;DHT22;31788;6.954;-71.872;2023-04-03T08:03:13;26.40;88.30
46055;DHT22;31788;6.954;-71.872;2023-04-03T08:05:44;26.50;88.20
46055;DHT22;31788;6.954;-71.872;2023-04-03T08:08:14;26.50;88.10
46055;DHT22;31788;6.954;-71.872;2023-04-03T08:10:41;26.50;88.20
46055;DHT22;31788;6.954;-71.872;2023-04-03T08:13:09;26.50;87.60
46055;DHT22;31788;6.954;-71.872;2023-04-03T08:15:36;26.50;87.40
46055;DHT22;31788;6.954;-71.872;2023-04-03T08:18:04;26.50;87.30
46055;DHT22;31788;6.954;-71.872;2023-04-03T08:20:31;26.60;87.60
46055;DHT22;31788;6.954;-71.872;2023-04-03T08:22:57;26.60;87.50
46055;DHT22;31788;6.954;-71.872;2023-04-03T08:25:24;26.60;87.20
46055;DHT22;31788;6.954;-71.872;2023-04-03T08:27:50;26.60;87.10
46055;DHT22;31788;6.954;-71.872;2023-04-03T08:30:17;26.60;87.60
46055;DHT22;31788;6.954;-71.872;2023-04-03T08:32:44;26.60;87.30
46055;DHT22;31788;6.954;-71.872;2023-04-03T08:35:11;26.50;87.10
46055;DHT22;31788;6.954;-71.872;2023-04-03T08:37:39;26.50;87.50
46055;DHT22;31788;6.954;-71.872;2023-04-03T08:40:08;26.60;88.00
46055;DHT22;31788;6.954;-71.872;2023-04-03T08:43:25;26.50;88.50
46055;DHT22;31788;6.954;-71.872;2023-04-03T08:45:58;26.50;89.40
46055;DHT22;31788;6.954;-71.872;2023-04-03T08:48:35;26.50;89.90
46055;DHT22;31788;6.954;-71.872;2023-04-03T08:51:09;26.50;89.80
46055;DHT22;31788;6.954;-71.872;2023-04-03T08:54:00;26.50;90.10
46055;DHT22;31788;6.954;-71.872;2023-04-03T08:56:31;26.50;90.00
46055;DHT22;31788;6.954;-71.872;2023-04-03T08:59:06;26.50;90.10
46055;DHT22;31788;6.954;-71.872;2023-04-03T09:01:40;26.50;90.00
46055;DHT22;31788;6.954;-71.872;2023-04-03T09:04:16;26.50;90.40
46055;DHT22;31788;6.954;-71.872;2023-04-03T09:06:58;26.50;90.00
46055;DHT22;31788;6.954;-71.872;2023-04-03T09:09:36;26.50;90.10
46055;DHT22;31788;6.954;-71.872;2023-04-03T09:15:07;26.50;90.00
46055;DHT22;31788;6.954;-71.872;2023-04-03T09:22:58;26.50;90.20
46055;DHT22;31788;6.954;-71.872;2023-04-03T09:25:37;26.50;90.30
46055;DHT22;31788;6.954;-71.872;2023-04-03T09:28:04;26.50;90.40
46055;DHT22;31788;6.954;-71.872;2023-04-03T09:30:36;26.50;90.60
46055;DHT22;31788;6.954;-71.872;2023-04-03T09:33:04;26.50;90.70
46055;DHT22;31788;6.954;-71.872;2023-04-03T09:35:37;26.50;90.70
46055;DHT22;31788;6.954;-71.872;2023-04-03T09:40:39;26.40;91.30
46055;DHT22;31788;6.954;-71.872;2023-04-03T09:43:28;26.30;91.60
46055;DHT22;31788;6.954;-71.872;2023-04-03T09:45:56;26.30;91.70
46055;DHT22;31788;6.954;-71.872;2023-04-03T09:48:59;26.20;91.70
46055;DHT22;31788;6.954;-71.872;2023-04-03T09:51:28;26.20;91.90
46055;DHT22;31788;6.954;-71.872;2023-04-03T09:53:55;26.20;92.60
46055;DHT22;31788;6.954;-71.872;2023-04-03T09:56:25;26.20;92.20
46055;DHT22;31788;6.954;-71.872;2023-04-03T10:01:37;26.10;92.00
46055;DHT22;31788;6.954;-71.872;2023-04-03T10:04:17;26.10;91.90
46055;DHT22;31788;6.954;-71.872;2023-04-03T10:06:49;26.10;91.90
46055;DHT22;31788;6.954;-71.872;2023-04-03T10:09:24;26.10;91.90
46055;DHT22;31788;6.954;-71.872;2023-04-03T10:12:08;26.10;91.70
46055;DHT22;31788;6.954;-71.872;2023-04-03T10:14:59;26.20;91.80
46055;DHT22;31788;6.954;-71.872;2023-04-03T10:23:00;26.20;91.60
46055;DHT22;31788;6.954;-71.872;2023-04-03T10:34:45;26.20;91.50
46055;DHT22;31788;6.954;-71.872;2023-04-03T10:37:28;26.10;91.60
46055;DHT22;31788;6.954;-71.872;2023-04-03T10:40:01;26.20;91.70
46055;DHT22;31788;6.954;-71.872;2023-04-03T10:42:49;26.10;91.80
46055;DHT22;31788;6.954;-71.872;2023-04-03T10:51:16;26.20;91.80
46055;DHT22;31788;6.954;-71.872;2023-04-03T10:53:58;26.20;91.90
46055;DHT22;31788;6.954;-71.872;2023-04-03T11:02:13;26.20;91.60
46055;DHT22;31788;6.954;-71.872;2023-04-03T11:04:50;26.20;91.50
46055;DHT22;31788;6.954;-71.872;2023-04-03T11:07:23;26.20;91.60
46055;DHT22;31788;6.954;-71.872;2023-04-03T11:09:55;26.20;91.60
46055;DHT22;31788;6.954;-71.872;2023-04-03T11:12:42;26.20;91.40
46055;DHT22;31788;6.954;-71.872;2023-04-03T11:15:17;26.30;91.40
46055;DHT22;31788;6.954;-71.872;2023-04-03T11:18:00;26.20;91.70
46055;DHT22;31788;6.954;-71.872;2023-04-03T11:20:30;26.30;91.40
46055;DHT22;31788;6.954;-71.872;2023-04-03T11:23:16;26.30;91.30
46055;DHT22;31788;6.954;-71.872;2023-04-03T11:25:49;26.30;91.30
46055;DHT22;31788;6.954;-71.872;2023-04-03T11:28:16;26.40;91.40
46055;DHT22;31788;6.954;-71.872;2023-04-03T11:39:22;26.40;91.90
46055;DHT22;31788;6.954;-71.872;2023-04-03T11:41:50;26.40;92.20
46055;DHT22;31788;6.954;-71.872;2023-04-03T11:44:30;26.50;92.10
46055;DHT22;31788;6.954;-71.872;2023-04-03T11:46:59;26.50;92.20
46055;DHT22;31788;6.954;-71.872;2023-04-03T11:50:03;26.50;92.20
46055;DHT22;31788;6.954;-71.872;2023-04-03T11:58:04;26.50;92.20
46055;DHT22;31788;6.954;-71.872;2023-04-03T12:16:29;26.50;92.30
46055;DHT22;31788;6.954;-71.872;2023-04-03T12:19:01;26.50;92.30
46055;DHT22;31788;6.954;-71.872;2023-04-03T12:29:38;26.90;92.10
46055;DHT22;31788;6.954;-71.872;2023-04-03T12:38:17;27.00;92.00
46055;DHT22;31788;6.954;-71.872;2023-04-03T12:41:18;27.10;91.90
46055;DHT22;31788;6.954;-71.872;2023-04-03T12:46:46;27.30;91.80
46055;DHT22;31788;6.954;-71.872;2023-04-03T12:49:38;27.40;91.60
46055;DHT22;31788;6.954;-71.872;2023-04-03T12:52:23;27.60;91.40
46055;DHT22;31788;6.954;-71.872;2023-04-03T12:54:52;27.60;91.50
46055;DHT22;31788;6.954;-71.872;2023-04-03T12:57:24;27.70;91.50
46055;DHT22;31788;6.954;-71.872;2023-04-03T12:59:51;27.70;91.50
46055;DHT22;31788;6.954;-71.872;2023-04-03T13:02:32;27.60;91.40
46055;DHT22;31788;6.954;-71.872;2023-04-03T13:05:09;27.60;91.60
46055;DHT22;31788;6.954;-71.872;2023-04-03T13:07:37;27.60;91.70
46055;DHT22;31788;6.954;-71.872;2023-04-03T13:12:46;27.50;91.60
46055;DHT22;31788;6.954;-71.872;2023-04-03T13:15:41;27.50;91.70
46055;DHT22;31788;6.954;-71.872;2023-04-03T13:18:29;27.50;91.70
46055;DHT22;31788;6.954;-71.872;2023-04-03T13:21:01;27.50;91.70
46055;DHT22;31788;6.954;-71.872;2023-04-03T13:23:29;27.50;91.60
46055;DHT22;31788;6.954;-71.872;2023-04-03T13:25:58;27.50;91.80
46055;DHT22;31788;6.954;-71.872;2023-04-03T13:28:31;27.50;91.70
46055;DHT22;31788;6.954;-71.872;2023-04-03T13:34:06;27.60;91.60
46055;DHT22;31788;6.954;-71.872;2023-04-03T13:36:39;27.60;91.70
46055;DHT22;31788;6.954;-71.872;2023-04-03T13:39:25;27.70;91.60
46055;DHT22;31788;6.954;-71.872;2023-04-03T13:42:03;27.70;91.60
46055;DHT22;31788;6.954;-71.872;2023-04-03T13:44:40;27.70;91.50
46055;DHT22;31788;6.954;-71.872;2023-04-03T13:49:43;27.70;91.40
46055;DHT22;31788;6.954;-71.872;2023-04-03T13:52:26;27.80;91.30
46055;DHT22;31788;6.954;-71.872;2023-04-03T13:54:59;27.80;91.40
46055;DHT22;31788;6.954;-71.872;2023-04-03T13:57:27;27.80;91.20
46055;DHT22;31788;6.954;-71.872;2023-04-03T13:59:54;27.80;91.30
46055;DHT22;31788;6.954;-71.872;2023-04-03T14:02:39;27.80;91.20
46055;DHT22;31788;6.954;-71.872;2023-04-03T14:05:07;27.80;91.30
46055;DHT22;31788;6.954;-71.872;2023-04-03T14:07:34;27.80;91.20
46055;DHT22;31788;6.954;-71.872;2023-04-03T14:10:01;27.80;91.10
46055;DHT22;31788;6.954;-71.872;2023-04-03T14:12:36;27.80;91.20
46055;DHT22;31788;6.954;-71.872;2023-04-03T14:15:27;27.90;90.80
46055;DHT22;31788;6.954;-71.872;2023-04-03T14:17:55;27.90;90.80
46055;DHT22;31788;6.954;-71.872;2023-04-03T14:20:25;27.90;90.80
46055;DHT22;31788;6.954;-71.872;2023-04-03T14:22:53;27.90;90.70
46055;DHT22;31788;6.954;-71.872;2023-04-03T14:25:21;27.90;90.80
46055;DHT22;31788;6.954;-71.872;2023-04-03T14:27:52;28.00;90.90
46055;DHT22;31788;6.954;-71.872;2023-04-03T14:30:24;28.00;90.90
46055;DHT22;31788;6.954;-71.872;2023-04-03T14:32:51;28.00;91.00
46055;DHT22;31788;6.954;-71.872;2023-04-03T14:35:19;28.00;91.20
46055;DHT22;31788;6.954;-71.872;2023-04-03T14:37:46;28.00;91.00
46055;DHT22;31788;6.954;-71.872;2023-04-03T14:40:17;28.00;91.10
46055;DHT22;31788;6.954;-71.872;2023-04-03T14:42:44;28.10;91.20
46055;DHT22;31788;6.954;-71.872;2023-04-03T14:45:13;28.10;91.20
46055;DHT22;31788;6.954;-71.872;2023-04-03T14:47:47;28.10;91.40
46055;DHT22;31788;6.954;-71.872;2023-04-03T14:50:16;28.10;91.30
46055;DHT22;31788;6.954;-71.872;2023-04-03T14:52:44;28.10;91.20
46055;DHT22;31788;6.954;-71.872;2023-04-03T14:55:18;28.10;91.30
46055;DHT22;31788;6.954;-71.872;2023-04-03T14:57:45;28.10;91.30
46055;DHT22;31788;6.954;-71.872;2023-04-03T15:00:15;28.20;91.70
46055;DHT22;31788;6.954;-71.872;2023-04-03T15:02:42;28.20;91.60
46055;DHT22;31788;6.954;-71.872;2023-04-03T15:05:10;28.20;91.60
46055;DHT22;31788;6.954;-71.872;2023-04-03T15:07:39;28.30;91.70
46055;DHT22;31788;6.954;-71.872;2023-04-03T15:10:23;28.30;91.40
46055;DHT22;31788;6.954;-71.872;2023-04-03T15:12:50;28.30;91.80
46055;DHT22;31788;6.954;-71.872;2023-04-03T15:15:19;28.30;91.60
46055;DHT22;31788;6.954;-71.872;2023-04-03T15:17:48;28.30;91.70
46055;DHT22;31788;6.954;-71.872;2023-04-03T15:20:18;28.30;91.70
46055;DHT22;31788;6.954;-71.872;2023-04-03T15:22:45;28.30;91.80
46055;DHT22;31788;6.954;-71.872;2023-04-03T15:25:12;28.40;92.00
46055;DHT22;31788;6.954;-71.872;2023-04-03T15:27:40;28.40;91.90
46055;DHT22;31788;6.954;-71.872;2023-04-03T15:30:08;28.40;91.90
46055;DHT22;31788;6.954;-71.872;2023-04-03T15:32:37;28.40;91.70
46055;DHT22;31788;6.954;-71.872;2023-04-03T15:35:04;28.40;91.90
46055;DHT22;31788;6.954;-71.872;2023-04-03T15:37:31;28.40;91.70
46055;DHT22;31788;6.954;-71.872;2023-04-03T15:39:58;28.50;91.30
46055;DHT22;31788;6.954;-71.872;2023-04-03T15:42:25;28.50;91.50
46055;DHT22;31788;6.954;-71.872;2023-04-03T15:44:52;28.50;91.70
46055;DHT22;31788;6.954;-71.872;2023-04-03T15:47:19;28.60;91.90
46055;DHT22;31788;6.954;-71.872;2023-04-03T15:49:45;28.60;91.80
46055;DHT22;31788;6.954;-71.872;2023-04-03T15:52:12;28.60;91.90
46055;DHT22;31788;6.954;-71.872;2023-04-03T15:54:38;28.60;91.70
46055;DHT22;31788;6.954;-71.872;2023-04-03T15:57:06;28.60;91.60
46055;DHT22;31788;6.954;-71.872;2023-04-03T15:59:33;28.60;91.80
46055;DHT22;31788;6.954;-71.872;2023-04-03T16:02:01;28.60;91.90
46055;DHT22;31788;6.954;-71.872;2023-04-03T16:04:30;28.70;91.40
46055;DHT22;31788;6.954;-71.872;2023-04-03T16:06:57;28.80;91.30
46055;DHT22;31788;6.954;-71.872;2023-04-03T16:09:23;28.80;91.20
46055;DHT22;31788;6.954;-71.872;2023-04-03T16:11:51;28.90;91.30
46055;DHT22;31788;6.954;-71.872;2023-04-03T16:14:18;28.90;91.30
46055;DHT22;31788;6.954;-71.872;2023-04-03T16:16:46;28.90;91.80
46055;DHT22;31788;6.954;-71.872;2023-04-03T16:19:13;28.90;91.70
46055;DHT22;31788;6.954;-71.872;2023-04-03T16:21:40;28.90;91.70
46055;DHT22;31788;6.954;-71.872;2023-04-03T16:24:07;28.90;91.60
46055;DHT22;31788;6.954;-71.872;2023-04-03T16:26:33;29.00;91.60
46055;DHT22;31788;6.954;-71.872;2023-04-03T16:29:00;29.00;91.60
46055;DHT22;31788;6.954;-71.872;2023-04-03T16:31:27;29.00;91.60
46055;DHT22;31788;6.954;-71.872;2023-04-03T16:33:55;29.00;91.50
46055;DHT22;31788;6.954;-71.872;2023-04-03T16:36:23;29.00;91.40
46055;DHT22;31788;6.954;-71.872;2023-04-03T16:38:49;29.10;91.50
46055;DHT22;31788;6.954;-71.872;2023-04-03T16:41:16;29.10;90.90
46055;DHT22;31788;6.954;-71.872;2023-04-03T16:43:43;29.20;91.60
46055;DHT22;31788;6.954;-71.872;2023-04-03T16:46:09;29.20;91.20
46055;DHT22;31788;6.954;-71.872;2023-04-03T16:48:37;29.20;90.80
46055;DHT22;31788;6.954;-71.872;2023-04-03T16:51:04;29.30;91.10
46055;DHT22;31788;6.954;-71.872;2023-04-03T16:53:30;29.30;91.30
46055;DHT22;31788;6.954;-71.872;2023-04-03T16:55:58;29.20;91.40
46055;DHT22;31788;6.954;-71.872;2023-04-03T16:58:25;29.30;91.30
46055;DHT22;31788;6.954;-71.872;2023-04-03T17:00:52;29.30;91.30
46055;DHT22;31788;6.954;-71.872;2023-04-03T17:03:19;29.40;91.40
46055;DHT22;31788;6.954;-71.872;2023-04-03T17:05:49;29.40;91.60
46055;DHT22;31788;6.954;-71.872;2023-04-03T17:08:17;29.40;91.40
46055;DHT22;31788;6.954;-71.872;2023-04-03T17:10:45;29.50;91.30
46055;DHT22;31788;6.954;-71.872;2023-04-03T17:13:11;29.50;91.40
46055;DHT22;31788;6.954;-71.872;2023-04-03T17:15:38;29.50;91.90
46055;DHT22;31788;6.954;-71.872;2023-04-03T17:18:05;29.50;91.50